sensor_id;sensor_type;location;lat;lon;timestamp;pressure;altitude;pressure_sealevel;temperature;humidity
37648;BME280;23490;53.656;10.076;2023-03-13T00:01:57;99544.00;;;-145.95;100.00
37648;BME280;23490;53.656;10.076;2023-03-13T00:04:22;99533.66;;;-145.95;100.00
37648;BME280;23490;53.656;10.076;2023-03-13T00:06:48;99500.63;;;-145.95;100.00
37648;BME280;23490;53.656;10.076;2023-03-13T00:09:15;99508.88;;;-145.95;100.00
37648;BME280;23490;53.656;10.076;2023-03-13T00:11:41;99490.28;;;-145.95;100.00
37648;BME280;23490;53.656;10.076;2023-03-13T00:14:07;99492.34;;;-145.95;100.00
37648;BME280;23490;53.656;10.076;2023-03-13T00:16:33;99502.69;;;-145.95;100.00
37648;BME280;23490;53.656;10.076;2023-03-13T00:18:59;99504.75;;;-145.95;100.00
37648;BME280;23490;53.656;10.076;2023-03-13T00:21:26;99438.66;;;-145.95;100.00
37648;BME280;23490;53.656;10.076;2023-03-13T00:23:52;99473.75;;;-145.95;100.00
37648;BME280;23490;53.656;10.076;2023-03-13T00:26:20;99492.34;;;-145.95;100.00
37648;BME280;23490;53.656;10.076;2023-03-13T00:28:47;99496.47;;;-145.95;100.00
37648;BME280;23490;53.656;10.076;2023-03-13T00:31:18;99529.53;;;-145.95;100.00
37648;BME280;23490;53.656;10.076;2023-03-13T00:33:46;99500.63;;;-145.95;100.00
37648;BME280;23490;53.656;10.076;2023-03-13T00:36:17;99546.06;;;-145.95;100.00
37648;BME280;23490;53.656;10.076;2023-03-13T00:38:43;99521.28;;;-145.95;100.00
37648;BME280;23490;53.656;10.076;2023-03-13T00:41:24;99541.91;;;-145.95;100.00
37648;BME280;23490;53.656;10.076;2023-03-13T00:43:51;99525.41;;;-145.95;100.00
37648;BME280;23490;53.656;10.076;2023-03-13T00:46:19;99498.56;;;-145.95;100.00
37648;BME280;23490;53.656;10.076;2023-03-13T00:48:45;99525.41;;;-145.95;100.00
37648;BME280;23490;53.656;10.076;2023-03-13T00:51:11;99488.22;;;-145.95;100.00
37648;BME280;23490;53.656;10.076;2023-03-13T00:53:37;99504.75;;;-145.95;100.00
37648;BME280;23490;53.656;10.076;2023-03-13T00:56:05;99566.69;;;-145.95;100.00
37648;BME280;23490;53.656;10.076;2023-03-13T00:58:34;99463.44;;;-145.95;100.00
37648;BME280;23490;53.656;10.076;2023-03-13T01:03:43;99517.13;;;-145.95;100.00
37648;BME280;23490;53.656;10.076;2023-03-13T01:06:13;99451.06;;;-145.95;100.00
37648;BME280;23490;53.656;10.076;2023-03-13T01:08:39;99482.03;;;-145.95;100.00
37648;BME280;23490;53.656;10.076;2023-03-13T01:11:08;99488.22;;;-145.95;100.00
37648;BME280;23490;53.656;10.076;2023-03-13T01:13:34;99479.97;;;-145.95;100.00
37648;BME280;23490;53.656;10.076;2023-03-13T01:16:05;99513.00;;;-145.95;100.00
37648;BME280;23490;53.656;10.076;2023-03-13T01:18:31;99529.53;;;-145.95;100.00
37648;BME280;23490;53.656;10.076;2023-03-13T01:20:57;99488.22;;;-145.95;100.00
37648;BME280;23490;53.656;10.076;2023-03-13T01:23:22;99488.22;;;-145.95;100.00
37648;BME280;23490;53.656;10.076;2023-03-13T01:25:48;99463.44;;;-145.95;100.00
37648;BME280;23490;53.656;10.076;2023-03-13T01:28:13;99492.34;;;-145.95;100.00
37648;BME280;23490;53.656;10.076;2023-03-13T01:30:38;99504.75;;;-145.95;100.00
37648;BME280;23490;53.656;10.076;2023-03-13T01:33:04;99513.00;;;-145.95;100.00
37648;BME280;23490;53.656;10.076;2023-03-13T01:35:29;99496.47;;;-145.95;100.00
37648;BME280;23490;53.656;10.076;2023-03-13T01:37:55;99498.56;;;-145.95;100.00
37648;BME280;23490;53.656;10.076;2023-03-13T01:40:20;99508.88;;;-145.95;100.00
37648;BME280;23490;53.656;10.076;2023-03-13T01:42:54;99504.75;;;-145.95;100.00
37648;BME280;23490;53.656;10.076;2023-03-13T01:45:50;99519.22;;;-145.95;100.00
37648;BME280;23490;53.656;10.076;2023-03-13T01:48:18;99492.34;;;-145.95;100.00
37648;BME280;23490;53.656;10.076;2023-03-13T01:50:44;99504.75;;;-145.95;100.00
37648;BME280;23490;53.656;10.076;2023-03-13T01:53:09;99496.47;;;-145.95;100.00
37648;BME280;23490;53.656;10.076;2023-03-13T01:55:35;99488.22;;;-145.95;100.00
37648;BME280;23490;53.656;10.076;2023-03-13T01:58:00;99473.75;;;-145.95;100.00
37648;BME280;23490;53.656;10.076;2023-03-13T02:00:29;99475.84;;;-145.95;100.00
37648;BME280;23490;53.656;10.076;2023-03-13T02:02:57;99479.97;;;-145.95;100.00
37648;BME280;23490;53.656;10.076;2023-03-13T02:05:25;99513.00;;;-145.95;100.00
37648;BME280;23490;53.656;10.076;2023-03-13T02:10:53;99488.22;;;-145.95;100.00
37648;BME280;23490;53.656;10.076;2023-03-13T02:13:22;99451.06;;;-145.95;100.00
37648;BME280;23490;53.656;10.076;2023-03-13T02:15:48;99434.53;;;-145.95;100.00
37648;BME280;23490;53.656;10.076;2023-03-13T02:18:14;99496.47;;;-145.95;100.00
37648;BME280;23490;53.656;10.076;2023-03-13T02:20:40;99486.16;;;-145.95;100.00
37648;BME280;23490;53.656;10.076;2023-03-13T02:25:42;99484.09;;;-145.95;100.00
37648;BME280;23490;53.656;10.076;2023-03-13T02:28:37;99465.50;;;-145.95;100.00
37648;BME280;23490;53.656;10.076;2023-03-13T02:31:04;99471.69;;;-145.95;100.00
37648;BME280;23490;53.656;10.076;2023-03-13T02:33:33;99496.47;;;-145.95;100.00
37648;BME280;23490;53.656;10.076;2023-03-13T02:36:00;99500.63;;;-145.95;100.00
37648;BME280;23490;53.656;10.076;2023-03-13T02:38:28;99482.03;;;-145.95;100.00
37648;BME280;23490;53.656;10.076;2023-03-13T02:40:55;99484.09;;;-145.95;100.00
37648;BME280;23490;53.656;10.076;2023-03-13T02:43:26;99477.91;;;-145.95;100.00
37648;BME280;23490;53.656;10.076;2023-03-13T02:46:06;99475.84;;;-145.95;100.00
37648;BME280;23490;53.656;10.076;2023-03-13T02:48:40;99467.56;;;-145.95;100.00
37648;BME280;23490;53.656;10.076;2023-03-13T02:53:38;99508.88;;;-145.95;100.00
37648;BME280;23490;53.656;10.076;2023-03-13T02:56:04;99500.63;;;-145.95;100.00
37648;BME280;23490;53.656;10.076;2023-03-13T02:58:37;99479.97;;;-145.95;100.00
37648;BME280;23490;53.656;10.076;2023-03-13T03:01:02;99444.84;;;-145.95;100.00
37648;BME280;23490;53.656;10.076;2023-03-13T03:03:33;99471.69;;;-145.95;100.00
37648;BME280;23490;53.656;10.076;2023-03-13T03:05:59;99463.44;;;-145.95;100.00
37648;BME280;23490;53.656;10.076;2023-03-13T03:08:24;99451.06;;;-145.95;100.00
37648;BME280;23490;53.656;10.076;2023-03-13T03:10:49;99459.31;;;-145.95;100.00
37648;BME280;23490;53.656;10.076;2023-03-13T03:13:14;99475.84;;;-145.95;100.00
37648;BME280;23490;53.656;10.076;2023-03-13T03:15:40;99451.06;;;-145.95;100.00
37648;BME280;23490;53.656;10.076;2023-03-13T03:18:05;99492.34;;;-145.95;100.00
37648;BME280;23490;53.656;10.076;2023-03-13T03:20:30;99500.63;;;-145.95;100.00
37648;BME280;23490;53.656;10.076;2023-03-13T03:22:56;99484.09;;;-145.95;100.00
37648;BME280;23490;53.656;10.076;2023-03-13T03:25:21;99510.94;;;-145.95;100.00
37648;BME280;23490;53.656;10.076;2023-03-13T03:27:46;99513.00;;;-145.95;100.00
37648;BME280;23490;53.656;10.076;2023-03-13T03:30:12;99471.69;;;-145.95;100.00
37648;BME280;23490;53.656;10.076;2023-03-13T03:32:37;99492.34;;;-145.95;100.00
37648;BME280;23490;53.656;10.076;2023-03-13T03:35:03;99513.00;;;-145.95;100.00
37648;BME280;23490;53.656;10.076;2023-03-13T03:37:28;99498.56;;;-145.95;100.00
37648;BME280;23490;53.656;10.076;2023-03-13T03:39:54;99484.09;;;-145.95;100.00
37648;BME280;23490;53.656;10.076;2023-03-13T03:42:19;99500.63;;;-145.95;100.00
37648;BME280;23490;53.656;10.076;2023-03-13T03:44:44;99490.28;;;-145.95;100.00
37648;BME280;23490;53.656;10.076;2023-03-13T03:47:09;99506.81;;;-145.95;100.00
37648;BME280;23490;53.656;10.076;2023-03-13T03:49:35;99488.22;;;-145.95;100.00
37648;BME280;23490;53.656;10.076;2023-03-13T03:52:00;99490.28;;;-145.95;100.00
37648;BME280;23490;53.656;10.076;2023-03-13T03:54:25;99521.28;;;-145.95;100.00
37648;BME280;23490;53.656;10.076;2023-03-13T03:56:51;99529.53;;;-145.95;100.00
37648;BME280;23490;53.656;10.076;2023-03-13T03:59:16;99463.44;;;-145.95;100.00
37648;BME280;23490;53.656;10.076;2023-03-13T04:01:41;99486.16;;;-145.95;100.00
37648;BME280;23490;53.656;10.076;2023-03-13T04:04:08;99451.06;;;-145.95;100.00
37648;BME280;23490;53.656;10.076;2023-03-13T04:06:33;99521.28;;;-145.95;100.00
37648;BME280;23490;53.656;10.076;2023-03-13T04:08:59;99500.63;;;-145.95;100.00
37648;BME280;23490;53.656;10.076;2023-03-13T04:11:24;99492.34;;;-145.95;100.00
37648;BME280;23490;53.656;10.076;2023-03-13T04:13:49;99475.84;;;-145.95;100.00
37648;BME280;23490;53.656;10.076;2023-03-13T04:16:15;99537.78;;;-145.95;100.00
37648;BME280;23490;53.656;10.076;2023-03-13T04:18:40;99475.84;;;-145.95;100.00
37648;BME280;23490;53.656;10.076;2023-03-13T04:21:06;99488.22;;;-145.95;100.00
37648;BME280;23490;53.656;10.076;2023-03-13T04:23:32;99488.22;;;-145.95;100.00
37648;BME280;23490;53.656;10.076;2023-03-13T04:25:57;99465.50;;;-145.95;100.00
37648;BME280;23490;53.656;10.076;2023-03-13T04:28:23;99500.63;;;-145.95;100.00
37648;BME280;23490;53.656;10.076;2023-03-13T04:30:48;99504.75;;;-145.95;100.00
37648;BME280;23490;53.656;10.076;2023-03-13T04:33:13;99479.97;;;-145.95;100.00
37648;BME280;23490;53.656;10.076;2023-03-13T04:35:39;99482.03;;;-145.95;100.00
37648;BME280;23490;53.656;10.076;2023-03-13T04:38:04;99513.00;;;-145.95;100.00
37648;BME280;23490;53.656;10.076;2023-03-13T04:40:29;99523.34;;;-145.95;100.00
37648;BME280;23490;53.656;10.076;2023-03-13T04:42:54;99500.63;;;-145.95;100.00
37648;BME280;23490;53.656;10.076;2023-03-13T04:45:20;99508.88;;;-145.95;100.00
37648;BME280;23490;53.656;10.076;2023-03-13T04:47:46;99484.09;;;-145.95;100.00
37648;BME280;23490;53.656;10.076;2023-03-13T04:50:11;99475.84;;;-145.95;100.00
37648;BME280;23490;53.656;10.076;2023-03-13T04:52:37;99451.06;;;-145.95;100.00
37648;BME280;23490;53.656;10.076;2023-03-13T04:55:02;99463.44;;;-145.95;100.00
37648;BME280;23490;53.656;10.076;2023-03-13T04:57:28;99467.56;;;-145.95;100.00
37648;BME280;23490;53.656;10.076;2023-03-13T04:59:53;99492.34;;;-145.95;100.00
37648;BME280;23490;53.656;10.076;2023-03-13T05:02:18;99446.91;;;-145.95;100.00
37648;BME280;23490;53.656;10.076;2023-03-13T05:04:44;99465.50;;;-145.95;100.00
37648;BME280;23490;53.656;10.076;2023-03-13T05:07:09;99471.69;;;-145.95;100.00
37648;BME280;23490;53.656;10.076;2023-03-13T05:09:34;99479.97;;;-145.95;100.00
37648;BME280;23490;53.656;10.076;2023-03-13T05:12:00;99475.84;;;-145.95;100.00
37648;BME280;23490;53.656;10.076;2023-03-13T05:14:25;99461.38;;;-145.95;100.00
37648;BME280;23490;53.656;10.076;2023-03-13T05:16:50;99471.69;;;-145.95;100.00
37648;BME280;23490;53.656;10.076;2023-03-13T05:19:16;99513.00;;;-145.95;100.00
37648;BME280;23490;53.656;10.076;2023-03-13T05:21:41;99467.56;;;-145.95;100.00
37648;BME280;23490;53.656;10.076;2023-03-13T05:24:06;99513.00;;;-145.95;100.00
37648;BME280;23490;53.656;10.076;2023-03-13T05:26:32;99504.75;;;-145.95;100.00
37648;BME280;23490;53.656;10.076;2023-03-13T05:28:57;99525.41;;;-145.95;100.00
37648;BME280;23490;53.656;10.076;2023-03-13T05:31:22;99482.03;;;-145.95;100.00
37648;BME280;23490;53.656;10.076;2023-03-13T05:33:48;99475.84;;;-145.95;100.00
37648;BME280;23490;53.656;10.076;2023-03-13T05:36:13;99500.63;;;-145.95;100.00
37648;BME280;23490;53.656;10.076;2023-03-13T05:38:38;99475.84;;;-145.95;100.00
37648;BME280;23490;53.656;10.076;2023-03-13T05:41:04;99486.16;;;-145.95;100.00
37648;BME280;23490;53.656;10.076;2023-03-13T05:43:29;99479.97;;;-145.95;100.00
37648;BME280;23490;53.656;10.076;2023-03-13T05:45:54;99463.44;;;-145.95;100.00
37648;BME280;23490;53.656;10.076;2023-03-13T05:48:20;99502.69;;;-145.95;100.00
37648;BME280;23490;53.656;10.076;2023-03-13T05:50:45;99469.63;;;-145.95;100.00
37648;BME280;23490;53.656;10.076;2023-03-13T05:53:11;99488.22;;;-145.95;100.00
37648;BME280;23490;53.656;10.076;2023-03-13T05:55:36;99488.22;;;-145.95;100.00
37648;BME280;23490;53.656;10.076;2023-03-13T05:58:02;99467.56;;;-145.95;100.00
37648;BME280;23490;53.656;10.076;2023-03-13T06:00:27;99473.75;;;-145.95;100.00
37648;BME280;23490;53.656;10.076;2023-03-13T06:02:52;99479.97;;;-145.95;100.00
37648;BME280;23490;53.656;10.076;2023-03-13T06:05:18;99471.69;;;-145.95;100.00
37648;BME280;23490;53.656;10.076;2023-03-13T06:07:43;99473.75;;;-145.95;100.00
37648;BME280;23490;53.656;10.076;2023-03-13T06:10:09;99467.56;;;-145.95;100.00
37648;BME280;23490;53.656;10.076;2023-03-13T06:12:35;99463.44;;;-145.95;100.00
37648;BME280;23490;53.656;10.076;2023-03-13T06:15:00;99457.25;;;-145.95;100.00
37648;BME280;23490;53.656;10.076;2023-03-13T06:17:26;99446.91;;;-145.95;100.00
37648;BME280;23490;53.656;10.076;2023-03-13T06:19:51;99484.09;;;-145.95;100.00
37648;BME280;23490;53.656;10.076;2023-03-13T06:22:16;99463.44;;;-145.95;100.00
37648;BME280;23490;53.656;10.076;2023-03-13T06:24:42;99442.78;;;-145.95;100.00
37648;BME280;23490;53.656;10.076;2023-03-13T06:27:09;99475.84;;;-145.95;100.00
37648;BME280;23490;53.656;10.076;2023-03-13T06:29:34;99463.44;;;-145.95;100.00
37648;BME280;23490;53.656;10.076;2023-03-13T06:32:00;99463.44;;;-145.95;100.00
37648;BME280;23490;53.656;10.076;2023-03-13T06:34:25;99463.44;;;-145.95;100.00
37648;BME280;23490;53.656;10.076;2023-03-13T06:36:50;99455.19;;;-145.95;100.00
37648;BME280;23490;53.656;10.076;2023-03-13T06:39:16;99459.31;;;-145.95;100.00
37648;BME280;23490;53.656;10.076;2023-03-13T06:41:41;99426.28;;;-145.95;100.00
37648;BME280;23490;53.656;10.076;2023-03-13T06:44:06;99430.41;;;-145.95;100.00
37648;BME280;23490;53.656;10.076;2023-03-13T06:46:32;99471.69;;;-145.95;100.00
37648;BME280;23490;53.656;10.076;2023-03-13T06:48:57;99420.06;;;-145.95;100.00
37648;BME280;23490;53.656;10.076;2023-03-13T06:51:23;99430.41;;;-145.95;100.00
37648;BME280;23490;53.656;10.076;2023-03-13T06:53:50;99432.47;;;-145.95;100.00
37648;BME280;23490;53.656;10.076;2023-03-13T06:56:16;99409.75;;;-145.95;100.00
37648;BME280;23490;53.656;10.076;2023-03-13T06:58:41;99436.59;;;-145.95;100.00
37648;BME280;23490;53.656;10.076;2023-03-13T07:01:09;99426.28;;;-145.95;100.00
37648;BME280;23490;53.656;10.076;2023-03-13T07:03:36;99393.22;;;-145.95;100.00
37648;BME280;23490;53.656;10.076;2023-03-13T07:06:03;99391.16;;;-145.95;100.00
37648;BME280;23490;53.656;10.076;2023-03-13T07:08:28;99397.34;;;-145.95;100.00
37648;BME280;23490;53.656;10.076;2023-03-13T07:10:58;99422.13;;;-145.95;100.00
37648;BME280;23490;53.656;10.076;2023-03-13T07:13:24;99389.09;;;-145.95;100.00
37648;BME280;23490;53.656;10.076;2023-03-13T07:15:49;99374.63;;;-145.95;100.00
37648;BME280;23490;53.656;10.076;2023-03-13T07:18:16;99380.84;;;-145.95;100.00
37648;BME280;23490;53.656;10.076;2023-03-13T07:20:41;99362.25;;;-145.95;100.00
37648;BME280;23490;53.656;10.076;2023-03-13T07:23:07;99372.56;;;-145.95;100.00
37648;BME280;23490;53.656;10.076;2023-03-13T07:25:32;99358.13;;;-145.95;100.00
37648;BME280;23490;53.656;10.076;2023-03-13T07:27:57;99382.91;;;-145.95;100.00
37648;BME280;23490;53.656;10.076;2023-03-13T07:30:25;99343.66;;;-145.95;100.00
37648;BME280;23490;53.656;10.076;2023-03-13T07:32:50;99351.91;;;-145.95;100.00
37648;BME280;23490;53.656;10.076;2023-03-13T07:35:15;99364.31;;;-145.95;100.00
37648;BME280;23490;53.656;10.076;2023-03-13T07:37:41;99298.22;;;-145.95;100.00
37648;BME280;23490;53.656;10.076;2023-03-13T07:40:06;99356.06;;;-145.95;100.00
37648;BME280;23490;53.656;10.076;2023-03-13T07:42:33;99345.72;;;-145.95;100.00
37648;BME280;23490;53.656;10.076;2023-03-13T07:44:58;99289.97;;;-145.95;100.00
37648;BME280;23490;53.656;10.076;2023-03-13T07:47:24;99327.13;;;-145.95;100.00
37648;BME280;23490;53.656;10.076;2023-03-13T07:49:49;99331.28;;;-145.95;100.00
37648;BME280;23490;53.656;10.076;2023-03-13T07:52:14;99343.66;;;-145.95;100.00
37648;BME280;23490;53.656;10.076;2023-03-13T07:54:40;99347.78;;;-145.95;100.00
37648;BME280;23490;53.656;10.076;2023-03-13T07:57:05;99298.22;;;-145.95;100.00
37648;BME280;23490;53.656;10.076;2023-03-13T07:59:30;99310.63;;;-145.95;100.00
37648;BME280;23490;53.656;10.076;2023-03-13T08:01:56;99339.53;;;-145.95;100.00
37648;BME280;23490;53.656;10.076;2023-03-13T08:04:21;99269.31;;;-145.95;100.00
37648;BME280;23490;53.656;10.076;2023-03-13T08:06:46;99302.34;;;-145.95;100.00
37648;BME280;23490;53.656;10.076;2023-03-13T08:09:12;99265.19;;;-145.95;100.00
37648;BME280;23490;53.656;10.076;2023-03-13T08:11:38;99306.50;;;-145.95;100.00
37648;BME280;23490;53.656;10.076;2023-03-13T08:14:08;99281.72;;;-145.95;100.00
37648;BME280;23490;53.656;10.076;2023-03-13T08:16:34;99304.41;;;-145.95;100.00
37648;BME280;23490;53.656;10.076;2023-03-13T08:19:00;99254.84;;;-145.95;100.00
37648;BME280;23490;53.656;10.076;2023-03-13T08:21:33;99271.38;;;-145.95;100.00
37648;BME280;23490;53.656;10.076;2023-03-13T08:24:01;99234.22;;;-145.95;100.00
37648;BME280;23490;53.656;10.076;2023-03-13T08:26:29;99256.94;;;-145.95;100.00
37648;BME280;23490;53.656;10.076;2023-03-13T08:28:57;99203.22;;;-145.95;100.00
37648;BME280;23490;53.656;10.076;2023-03-13T08:31:45;99244.53;;;-145.95;100.00
37648;BME280;23490;53.656;10.076;2023-03-13T08:34:12;99207.38;;;-145.95;100.00
37648;BME280;23490;53.656;10.076;2023-03-13T08:36:39;99228.00;;;-145.95;100.00
37648;BME280;23490;53.656;10.076;2023-03-13T08:39:06;99192.91;;;-145.95;100.00
37648;BME280;23490;53.656;10.076;2023-03-13T08:41:34;99242.47;;;-145.95;100.00
37648;BME280;23490;53.656;10.076;2023-03-13T08:44:01;99182.59;;;-145.95;100.00
37648;BME280;23490;53.656;10.076;2023-03-13T08:46:32;99203.22;;;-145.95;100.00
37648;BME280;23490;53.656;10.076;2023-03-13T08:48:57;99182.59;;;-145.95;100.00
37648;BME280;23490;53.656;10.076;2023-03-13T08:51:25;99188.78;;;-145.95;100.00
37648;BME280;23490;53.656;10.076;2023-03-13T08:53:52;99201.16;;;-145.95;100.00
37648;BME280;23490;53.656;10.076;2023-03-13T08:56:19;99205.28;;;-145.95;100.00
37648;BME280;23490;53.656;10.076;2023-03-13T08:58:50;99174.31;;;-145.95;100.00
37648;BME280;23490;53.656;10.076;2023-03-13T09:01:16;99178.44;;;-145.95;100.00
37648;BME280;23490;53.656;10.076;2023-03-13T09:03:42;99174.31;;;-145.95;100.00
37648;BME280;23490;53.656;10.076;2023-03-13T09:06:08;99168.13;;;-145.95;100.00
37648;BME280;23490;53.656;10.076;2023-03-13T09:08:35;99157.81;;;-145.95;100.00
37648;BME280;23490;53.656;10.076;2023-03-13T09:11:04;99170.19;;;-145.95;100.00
37648;BME280;23490;53.656;10.076;2023-03-13T09:13:31;99166.06;;;-145.95;100.00
37648;BME280;23490;53.656;10.076;2023-03-13T09:16:04;99120.63;;;-145.95;100.00
37648;BME280;23490;53.656;10.076;2023-03-13T09:18:30;99122.69;;;-145.95;100.00
37648;BME280;23490;53.656;10.076;2023-03-13T09:20:56;99104.09;;;-145.95;100.00
37648;BME280;23490;53.656;10.076;2023-03-13T09:23:22;99153.66;;;-145.95;100.00
37648;BME280;23490;53.656;10.076;2023-03-13T09:25:51;99106.16;;;-145.95;100.00
37648;BME280;23490;53.656;10.076;2023-03-13T09:28:17;99137.16;;;-145.95;100.00
37648;BME280;23490;53.656;10.076;2023-03-13T09:30:42;99116.50;;;-145.95;100.00
37648;BME280;23490;53.656;10.076;2023-03-13T09:33:08;99091.72;;;-145.95;100.00
37648;BME280;23490;53.656;10.076;2023-03-13T09:35:33;99108.25;;;-145.95;100.00
37648;BME280;23490;53.656;10.076;2023-03-13T09:37:58;99110.31;;;-145.95;100.00
37648;BME280;23490;53.656;10.076;2023-03-13T09:40:25;99099.97;;;-145.95;100.00
37648;BME280;23490;53.656;10.076;2023-03-13T09:42:59;99126.81;;;-145.95;100.00
37648;BME280;23490;53.656;10.076;2023-03-13T09:45:31;99104.09;;;-145.95;100.00
37648;BME280;23490;53.656;10.076;2023-03-13T09:48:09;99071.06;;;-145.95;100.00
37648;BME280;23490;53.656;10.076;2023-03-13T09:50:43;99075.19;;;-145.95;100.00
37648;BME280;23490;53.656;10.076;2023-03-13T09:53:23;99106.16;;;-145.95;100.00
37648;BME280;23490;53.656;10.076;2023-03-13T09:55:53;99073.13;;;-145.95;100.00
37648;BME280;23490;53.656;10.076;2023-03-13T09:58:24;99077.25;;;-145.95;100.00
37648;BME280;23490;53.656;10.076;2023-03-13T10:00:57;99042.16;;;-145.95;100.00
37648;BME280;23490;53.656;10.076;2023-03-13T10:03:30;99095.84;;;-145.95;100.00
37648;BME280;23490;53.656;10.076;2023-03-13T10:05:59;99108.25;;;-145.95;100.00
37648;BME280;23490;53.656;10.076;2023-03-13T10:08:28;99104.09;;;-145.95;100.00
37648;BME280;23490;53.656;10.076;2023-03-13T10:11:06;99069.00;;;-145.95;100.00
37648;BME280;23490;53.656;10.076;2023-03-13T10:13:41;99058.69;;;-145.95;100.00
37648;BME280;23490;53.656;10.076;2023-03-13T10:16:12;99079.34;;;-145.95;100.00
37648;BME280;23490;53.656;10.076;2023-03-13T10:18:39;99104.09;;;-145.95;100.00
37648;BME280;23490;53.656;10.076;2023-03-13T10:21:23;99029.78;;;-145.95;100.00
37648;BME280;23490;53.656;10.076;2023-03-13T10:24:02;99038.03;;;-145.95;100.00
37648;BME280;23490;53.656;10.076;2023-03-13T10:26:33;99073.13;;;-145.95;100.00
37648;BME280;23490;53.656;10.076;2023-03-13T10:29:29;99013.25;;;-145.95;100.00
37648;BME280;23490;53.656;10.076;2023-03-13T10:32:04;99040.09;;;-145.95;100.00
37648;BME280;23490;53.656;10.076;2023-03-13T10:34:50;99099.97;;;-145.95;100.00
37648;BME280;23490;53.656;10.076;2023-03-13T10:37:30;99021.50;;;-145.95;100.00
37648;BME280;23490;53.656;10.076;2023-03-13T10:40:13;98986.41;;;-145.95;100.00
37648;BME280;23490;53.656;10.076;2023-03-13T10:42:44;98910.00;;;-145.95;100.00
37648;BME280;23490;53.656;10.076;2023-03-13T10:45:14;98860.44;;;-145.95;100.00
37648;BME280;23490;53.656;10.076;2023-03-13T10:47:40;98703.53;;;-145.95;100.00
37648;BME280;23490;53.656;10.076;2023-03-13T10:50:05;98788.19;;;-145.95;100.00
37648;BME280;23490;53.656;10.076;2023-03-13T10:52:40;98699.38;;;-145.95;100.00
37648;BME280;23490;53.656;10.076;2023-03-13T10:55:11;98821.22;;;-145.95;100.00
37648;BME280;23490;53.656;10.076;2023-03-13T10:57:37;98837.72;;;-145.95;100.00
37648;BME280;23490;53.656;10.076;2023-03-13T11:00:33;98926.53;;;-145.95;100.00
37648;BME280;23490;53.656;10.076;2023-03-13T11:03:01;98874.91;;;-145.95;100.00
37648;BME280;23490;53.656;10.076;2023-03-13T11:07:55;98895.53;;;-145.95;100.00
37648;BME280;23490;53.656;10.076;2023-03-13T11:10:25;99021.50;;;-145.95;100.00
37648;BME280;23490;53.656;10.076;2023-03-13T11:12:52;98934.78;;;-145.95;100.00
37648;BME280;23490;53.656;10.076;2023-03-13T11:20:44;98843.94;;;-145.95;100.00
37648;BME280;23490;53.656;10.076;2023-03-13T11:23:29;98827.41;;;-145.95;100.00
37648;BME280;23490;53.656;10.076;2023-03-13T11:28:48;98583.75;;;-145.95;100.00
37648;BME280;23490;53.656;10.076;2023-03-13T11:31:39;98662.22;;;-145.95;100.00
37648;BME280;23490;53.656;10.076;2023-03-13T11:34:16;98542.47;;;-145.95;100.00
37648;BME280;23490;53.656;10.076;2023-03-13T11:36:57;98589.97;;;-145.95;100.00
37648;BME280;23490;53.656;10.076;2023-03-13T11:45:10;98542.47;;;-145.95;100.00
37648;BME280;23490;53.656;10.076;2023-03-13T11:47:59;98517.69;;;-145.95;97.64
37648;BME280;23490;53.656;10.076;2023-03-13T11:50:43;98373.16;;;-145.95;93.86
37648;BME280;23490;53.656;10.076;2023-03-13T11:53:25;98443.38;;;-145.95;90.57
37648;BME280;23490;53.656;10.076;2023-03-13T11:56:06;98379.38;;;-145.95;92.76
37648;BME280;23490;53.656;10.076;2023-03-13T11:58:41;98443.38;;;-145.95;88.88
37648;BME280;23490;53.656;10.076;2023-03-13T12:01:17;98486.72;;;-145.95;91.10
37648;BME280;23490;53.656;10.076;2023-03-13T12:06:23;98389.69;;;-145.95;90.48
37648;BME280;23490;53.656;10.076;2023-03-13T12:08:54;98108.91;;;-145.95;87.98
37648;BME280;23490;53.656;10.076;2023-03-13T12:11:26;98210.06;;;-145.95;86.55
37648;BME280;23490;53.656;10.076;2023-03-13T12:14:03;98080.00;;;-145.95;82.45
37648;BME280;23490;53.656;10.076;2023-03-13T12:16:42;97935.50;;;-145.95;80.48
37648;BME280;23490;53.656;10.076;2023-03-13T12:19:12;98282.31;;;-145.95;77.42
37648;BME280;23490;53.656;10.076;2023-03-13T12:21:49;98369.03;;;-145.95;82.61
37648;BME280;23490;53.656;10.076;2023-03-13T12:24:28;98426.84;;;-145.95;86.34
37648;BME280;23490;53.656;10.076;2023-03-13T12:27:04;98445.44;;;-145.95;85.12
37648;BME280;23490;53.656;10.076;2023-03-13T12:29:54;98364.91;;;-145.95;83.49
37648;BME280;23490;53.656;10.076;2023-03-13T12:35:26;98257.56;;;-145.95;82.31
37648;BME280;23490;53.656;10.076;2023-03-13T12:41:03;97997.44;;;-145.95;79.20
37648;BME280;23490;53.656;10.076;2023-03-13T12:43:33;97819.91;;;-145.95;77.34
37648;BME280;23490;53.656;10.076;2023-03-13T12:48:43;98371.09;;;-145.95;76.32
37648;BME280;23490;53.656;10.076;2023-03-13T12:51:25;98296.78;;;-145.95;79.20
37648;BME280;23490;53.656;10.076;2023-03-13T12:56:48;98397.94;;;-145.95;80.74
37648;BME280;23490;53.656;10.076;2023-03-13T12:59:21;98480.53;;;-145.95;81.36
37648;BME280;23490;53.656;10.076;2023-03-13T13:01:54;98521.81;;;-145.95;82.16
37648;BME280;23490;53.656;10.076;2023-03-13T13:04:27;97836.41;;;-145.95;83.63
37648;BME280;23490;53.656;10.076;2023-03-13T13:07:05;98352.53;;;-145.95;76.84
37648;BME280;23490;53.656;10.076;2023-03-13T13:09:36;98340.13;;;-145.95;77.88